Time;durP1;ratioP1;P1;durP2;ratioP2;P2;SDS_P1;SDS_P2;PMS_P1;PMS_P2;Temp;Humidity;BMP_temperature;BMP_pressure;BME280_temperature;BME280_humidity;BME280_pressure;Samples;Min_cycle;Max_cycle;Signal;HPM_P1;HPM_P2
2022/12/27 05:02:45;;;;;;;7.77;2.87;;;13.10;99.90;;;;;;4590046;19;20346;-30
2022/12/27 05:04:16;;;;;;;4.80;1.85;;;13.10;99.90;;;;;;4590003;19;20010;-31
2022/12/27 05:05:48;;;;;;;;;;;13.10;99.90;;;;;;4591034;19;20026;-32
2022/12/27 05:14:40;;;;;;;6.33;2.63;;;13.00;99.90;;;;;;4590158;19;20015;-31
2022/12/27 05:16:13;;;;;;;4.53;1.70;;;13.10;99.90;;;;;;4589500;19;20014;-34
2022/12/27 05:17:45;;;;;;;;;;;13.10;99.90;;;;;;4590811;19;20480;-32
2022/12/27 05:19:16;;;;;;;6.25;1.92;;;13.10;99.90;;;;;;4588480;19;19944;-29
2022/12/27 05:20:51;;;;;;;6.13;1.97;;;13.20;99.90;;;;;;4589352;19;20011;-28
2022/12/27 05:29:05;;;;;;;9.27;3.53;;;13.10;99.90;;;;;;4590283;19;19994;-29
2022/12/27 05:30:42;;;;;;;7.77;3.20;;;13.10;99.90;;;;;;4590201;19;20023;-31
2022/12/27 05:32:15;;;;;;;5.37;2.30;;;13.00;99.90;;;;;;4587953;19;20015;-30
2022/12/27 05:33:47;;;;;;;8.00;2.75;;;13.00;99.90;;;;;;4588908;19;20010;-30
2022/12/27 05:35:18;;;;;;;8.73;3.17;;;13.00;99.90;;;;;;4585429;19;20058;-34
2022/12/27 05:36:50;;;;;;;10.32;3.80;;;13.00;99.90;;;;;;4588050;19;20089;-32
2022/12/27 05:38:21;;;;;;;6.60;3.00;;;13.00;99.90;;;;;;4588007;19;20365;-31
2022/12/27 05:39:52;;;;;;;10.93;3.35;;;13.00;99.90;;;;;;4587816;19;20014;-32
2022/12/27 05:41:23;;;;;;;8.18;3.28;;;13.00;99.90;;;;;;4587067;19;20022;-32
2022/12/27 05:42:58;;;;;;;8.05;2.83;;;13.00;99.90;;;;;;4587964;19;20015;-31
2022/12/27 05:44:29;;;;;;;6.90;2.50;;;13.00;99.90;;;;;;4589243;19;20468;-32
2022/12/27 05:46:05;;;;;;;6.63;2.88;;;12.90;99.90;;;;;;4586904;19;20029;-30
2022/12/27 05:47:36;;;;;;;8.63;3.30;;;12.90;99.90;;;;;;4588316;19;20022;-31
2022/12/27 05:49:11;;;;;;;;;;;12.90;99.90;;;;;;4589473;19;20014;-32
2022/12/27 05:52:46;;;;;;;6.53;2.50;;;12.90;99.90;;;;;;4587394;19;20010;-35
2022/12/27 05:54:18;;;;;;;8.80;2.70;;;12.90;99.90;;;;;;4588468;19;20015;-30
2022/12/27 05:55:54;;;;;;;8.60;2.88;;;12.90;99.90;;;;;;4589146;19;20006;-32
2022/12/27 05:57:25;;;;;;;8.43;3.13;;;12.90;99.90;;;;;;4587790;19;20543;-29
2022/12/27 05:58:57;;;;;;;8.37;3.67;;;12.90;99.90;;;;;;4588512;19;20018;-29
2022/12/27 06:00:29;;;;;;;6.80;2.50;;;12.90;99.90;;;;;;4588589;19;20019;-32
2022/12/27 06:02:00;;;;;;;10.93;3.20;;;12.90;99.90;;;;;;4586988;19;20010;-31
2022/12/27 06:03:32;;;;;;;8.68;2.95;;;12.80;99.90;;;;;;4591010;19;20021;-29
2022/12/27 06:05:04;;;;;;;;;;;12.80;99.90;;;;;;4592432;19;20029;-33
2022/12/27 06:06:37;;;;;;;;;;;12.90;99.90;;;;;;4594517;19;19926;-37
2022/12/27 06:08:10;;;;;;;8.07;2.53;;;12.90;99.90;;;;;;4593229;19;19919;-38
2022/12/27 06:09:42;;;;;;;7.73;2.77;;;12.90;99.90;;;;;;4590337;19;20023;-34
2022/12/27 06:11:33;;;;;;;9.30;3.60;;;12.90;99.90;;;;;;4593869;19;20396;-29
2022/12/27 06:13:05;;;;;;;10.93;3.17;;;13.00;99.90;;;;;;4592071;19;20035;-29
2022/12/27 06:14:37;;;;;;;7.13;3.13;;;13.00;99.90;;;;;;4593496;19;20017;-29
2022/12/27 06:16:09;;;;;;;12.93;4.25;;;13.10;99.90;;;;;;4593195;19;20103;-34
2022/12/27 06:17:42;;;;;;;10.80;3.77;;;13.10;99.90;;;;;;4589683;19;20393;-35
2022/12/27 06:19:13;;;;;;;11.33;4.67;;;13.20;99.90;;;;;;4593275;19;20051;-29
2022/12/27 06:20:44;;;;;;;10.35;4.30;;;13.20;99.90;;;;;;4591698;19;20033;-33
2022/12/27 06:22:16;;;;;;;9.40;4.45;;;13.20;99.90;;;;;;4591087;19;20022;-29
2022/12/27 06:23:47;;;;;;;7.97;3.75;;;13.20;99.90;;;;;;4592814;19;20014;-31
2022/12/27 06:25:18;;;;;;;9.45;3.88;;;13.20;99.90;;;;;;4591942;19;20066;-29
2022/12/27 06:26:50;;;;;;;11.13;3.58;;;13.20;99.90;;;;;;4591723;19;20074;-29
2022/12/27 06:28:21;;;;;;;9.73;3.17;;;13.20;99.90;;;;;;4592153;19;20018;-30
2022/12/27 06:29:52;;;;;;;7.20;2.83;;;13.20;99.90;;;;;;4589217;19;20010;-30
2022/12/27 06:31:24;;;;;;;7.75;2.83;;;13.20;99.90;;;;;;4592186;19;20018;-33
2022/12/27 06:32:55;;;;;;;7.82;3.05;;;13.10;99.90;;;;;;4590633;19;20026;-30
2022/12/27 06:34:27;;;;;;;6.57;2.80;;;13.10;99.90;;;;;;4590043;19;20018;-29
2022/12/27 06:35:58;;;;;;;8.63;3.35;;;13.10;99.90;;;;;;4591609;19;20035;-30
2022/12/27 06:37:30;;;;;;;6.90;2.78;;;13.10;99.90;;;;;;4590955;19;20007;-29
2022/12/27 06:39:01;;;;;;;;;;;13.10;99.90;;;;;;4592233;19;20346;-39
2022/12/27 06:40:33;;;;;;;9.45;2.72;;;13.10;99.90;;;;;;4589027;19;20361;-33
2022/12/27 06:42:04;;;;;;;8.38;2.85;;;13.10;99.90;;;;;;4589703;19;20017;-29
2022/12/27 06:43:35;;;;;;;7.38;2.78;;;13.10;99.90;;;;;;4591580;19;20511;-30
2022/12/27 06:45:08;;;;;;;;;;;13.00;99.90;;;;;;4593429;19;20357;-30
2022/12/27 06:46:39;;;;;;;;;;;13.00;99.90;;;;;;4592039;19;20009;-30
2022/12/27 06:48:11;;;;;;;10.37;3.67;;;13.00;99.90;;;;;;4592291;19;19919;-29
2022/12/27 06:49:43;;;;;;;8.63;3.58;;;13.00;99.90;;;;;;4590925;19;20014;-30
2022/12/27 06:51:16;;;;;;;6.33;2.60;;;13.00;99.90;;;;;;4589678;19;20009;-32
2022/12/27 06:52:49;;;;;;;7.97;3.27;;;13.00;99.90;;;;;;4588245;19;20007;-30
2022/12/27 06:54:21;;;;;;;8.93;3.00;;;13.00;99.90;;;;;;4591004;19;20015;-34
2022/12/27 06:55:53;;;;;;;7.97;3.80;;;13.00;99.90;;;;;;4590531;19;20018;-30
2022/12/27 06:57:25;;;;;;;8.90;3.17;;;13.00;99.90;;;;;;4592630;19;20038;-35
2022/12/27 06:58:56;;;;;;;10.05;2.88;;;12.90;99.90;;;;;;4589952;19;20018;-32
2022/12/27 07:00:28;;;;;;;8.18;2.72;;;12.90;99.90;;;;;;4588873;19;20081;-30
2022/12/27 07:01:59;;;;;;;6.22;2.67;;;12.90;99.90;;;;;;4590461;19;20501;-29
2022/12/27 07:03:31;;;;;;;9.50;3.45;;;12.90;99.90;;;;;;4589667;19;20080;-33
2022/12/27 07:05:03;;;;;;;9.77;3.40;;;12.90;99.90;;;;;;4592252;19;20093;-31
2022/12/27 07:06:36;;;;;;;9.73;3.77;;;12.90;99.90;;;;;;4592092;19;20074;-31
2022/12/27 07:08:11;;;;;;;8.97;3.83;;;12.90;99.90;;;;;;4592539;19;20015;-33
2022/12/27 07:09:42;;;;;;;8.90;3.25;;;12.90;99.90;;;;;;4590476;19;20036;-33
2022/12/27 07:11:14;;;;;;;12.90;3.65;;;12.90;99.90;;;;;;4590814;19;20034;-31
2022/12/27 07:12:46;;;;;;;10.48;3.60;;;12.90;99.90;;;;;;4589845;19;20007;-28
2022/12/27 07:14:18;;;;;;;10.83;3.83;;;12.90;99.90;;;;;;4589782;19;20082;-32
2022/12/27 07:15:50;;;;;;;9.02;3.88;;;12.90;99.90;;;;;;4592281;19;20011;-30
2022/12/27 07:17:21;;;;;;;10.50;4.00;;;12.90;99.90;;;;;;4591342;19;20027;-32
2022/12/27 07:18:54;;;;;;;7.75;2.90;;;12.90;99.90;;;;;;4592543;19;20497;-29
2022/12/27 07:20:25;;;;;;;9.87;3.43;;;12.90;99.90;;;;;;4589621;19;20014;-32
2022/12/27 07:21:56;;;;;;;8.93;3.50;;;12.80;99.90;;;;;;4588172;19;20022;-34
2022/12/27 07:23:27;;;;;;;10.48;3.50;;;12.80;99.90;;;;;;4592005;19;20377;-29
2022/12/27 07:24:59;;;;;;;8.30;3.22;;;12.90;99.90;;;;;;4591609;19;20349;-31
2022/12/27 07:26:30;;;;;;;8.90;3.83;;;12.90;99.90;;;;;;4589126;19;20014;-31
2022/12/27 07:28:01;;;;;;;13.05;3.80;;;12.90;99.90;;;;;;4587076;19;20026;-32
2022/12/27 07:29:33;;;;;;;11.20;4.60;;;12.90;99.90;;;;;;4591437;19;20464;-31
2022/12/27 07:31:08;;;;;;;10.65;4.68;;;12.90;99.90;;;;;;4590604;19;20025;-31
2022/12/27 07:32:40;;;;;;;10.83;5.10;;;12.90;99.90;;;;;;4589330;19;20070;-32
2022/12/27 07:34:11;;;;;;;12.90;5.10;;;12.80;99.90;;;;;;4590947;19;20052;-30
2022/12/27 07:35:42;;;;;;;10.27;4.70;;;12.80;99.90;;;;;;4592086;19;20035;-31
2022/12/27 07:37:14;;;;;;;15.85;11.63;;;12.80;99.90;;;;;;4591014;19;20030;-29
2022/12/27 07:38:45;;;;;;;52.70;42.97;;;12.80;99.90;;;;;;4588674;19;20026;-30
2022/12/27 07:40:17;;;;;;;60.53;42.40;;;12.80;99.90;;;;;;4591344;19;20018;-31
2022/12/27 07:41:49;;;;;;;23.77;14.97;;;12.80;99.90;;;;;;4589517;19;20011;-30
2022/12/27 07:43:20;;;;;;;18.80;9.80;;;12.80;99.90;;;;;;4590649;19;20014;-31
2022/12/27 07:44:52;;;;;;;15.45;8.40;;;12.80;99.90;;;;;;4590139;19;20126;-31
2022/12/27 07:46:27;;;;;;;14.77;8.27;;;12.80;99.90;;;;;;4591315;19;20089;-33
2022/12/27 07:47:58;;;;;;;9.83;5.17;;;12.80;99.90;;;;;;4589984;19;20038;-30
2022/12/27 07:49:30;;;;;;;12.65;4.50;;;12.80;99.90;;;;;;4589087;19;20015;-30
2022/12/27 07:51:01;;;;;;;11.45;4.70;;;12.80;99.90;;;;;;4591741;19;20468;-30
2022/12/27 07:52:33;;;;;;;8.02;3.90;;;12.80;99.90;;;;;;4586873;19;20026;-29
2022/12/27 07:54:04;;;;;;;9.98;3.90;;;12.80;99.90;;;;;;4591049;19;20007;-29
2022/12/27 07:55:45;;;;;;;10.17;3.87;;;12.80;99.90;;;;;;4589398;19;20018;-29
2022/12/27 07:57:17;;;;;;;9.07;4.37;;;12.80;99.90;;;;;;4591482;19;20010;-29
2022/12/27 07:58:48;;;;;;;9.65;3.75;;;12.80;99.90;;;;;;4589501;19;20015;-33
2022/12/27 08:00:35;;;;;;;9.87;4.07;;;12.70;99.90;;;;;;4590581;19;20078;-29
2022/12/27 08:02:10;;;;;;;12.80;4.90;;;12.70;99.90;;;;;;4588624;19;20018;-35
2022/12/27 08:03:55;;;;;;;12.90;4.63;;;12.70;99.90;;;;;;4589809;19;20029;-30
2022/12/27 08:06:05;;;;;;;9.30;3.73;;;12.70;99.90;;;;;;4591264;19;20078;-31
2022/12/27 08:07:46;;;;;;;10.37;4.67;;;12.70;99.90;;;;;;4590490;19;20337;-30
2022/12/27 08:09:19;;;;;;;;;;;12.70;99.90;;;;;;4589150;19;20040;-29
2022/12/27 08:10:50;;;;;;;13.73;5.03;;;12.70;99.90;;;;;;4590332;19;19914;-31
2022/12/27 08:12:24;;;;;;;9.93;5.55;;;12.70;99.90;;;;;;4586848;19;20018;-32
2022/12/27 08:13:55;;;;;;;12.70;6.80;;;12.70;99.90;;;;;;4590896;19;20020;-33
2022/12/27 08:15:27;;;;;;;13.50;7.15;;;12.70;99.90;;;;;;4591056;19;20021;-35
2022/12/27 08:17:10;;;;;;;10.57;6.67;;;12.70;99.90;;;;;;4589265;19;20100;-29
2022/12/27 08:18:41;;;;;;;;;;;12.70;99.90;;;;;;4591364;19;20078;-35
2022/12/27 08:20:13;;;;;;;11.18;5.25;;;12.70;99.90;;;;;;4590721;19;19921;-32
2022/12/27 08:21:44;;;;;;;;;;;12.70;99.90;;;;;;4589084;19;20082;-29
2022/12/27 08:23:16;;;;;;;12.97;4.83;;;12.70;99.90;;;;;;4590034;19;19922;-31
2022/12/27 08:24:52;;;;;;;12.47;6.07;;;12.70;99.90;;;;;;4589749;19;20025;-29
2022/12/27 08:26:24;;;;;;;21.37;8.47;;;12.70;99.90;;;;;;4587306;19;20017;-30
2022/12/27 08:28:05;;;;;;;16.85;7.15;;;12.70;99.90;;;;;;4588351;19;20026;-29
2022/12/27 08:29:37;;;;;;;12.27;6.68;;;12.70;99.90;;;;;;4589647;19;20011;-29
2022/12/27 08:31:09;;;;;;;16.47;7.97;;;12.70;99.90;;;;;;4589509;19;20034;-29
2022/12/27 08:32:42;;;;;;;14.10;7.13;;;12.70;99.90;;;;;;4586604;19;20011;-30
2022/12/27 08:34:14;;;;;;;12.77;5.67;;;12.70;99.90;;;;;;4589070;19;20508;-30
2022/12/27 08:35:46;;;;;;;16.05;6.82;;;12.80;99.90;;;;;;4590340;19;20022;-30
2022/12/27 08:37:18;;;;;;;15.85;6.70;;;12.70;99.90;;;;;;4589508;19;20011;-33
2022/12/27 08:38:51;;;;;;;;;;;12.70;99.90;;;;;;4589848;19;20085;-32
2022/12/27 08:40:23;;;;;;;12.23;6.17;;;12.80;99.90;;;;;;4590634;19;19933;-30
2022/12/27 08:41:54;;;;;;;10.80;5.45;;;12.80;99.90;;;;;;4586681;19;20509;-29
2022/12/27 08:43:25;;;;;;;15.15;6.18;;;12.70;99.90;;;;;;4589881;19;20041;-30
2022/12/27 08:44:57;;;;;;;13.05;5.22;;;12.70;99.90;;;;;;4590166;19;20112;-29
2022/12/27 08:46:28;;;;;;;12.63;4.78;;;12.80;99.90;;;;;;4591339;19;20015;-35
2022/12/27 08:48:02;;;;;;;11.73;4.78;;;12.70;99.90;;;;;;4587388;19;20032;-33
2022/12/27 08:49:34;;;;;;;9.90;4.80;;;12.70;99.90;;;;;;4587231;19;20021;-30
2022/12/27 08:51:06;;;;;;;9.45;3.97;;;12.70;99.90;;;;;;4589199;19;20802;-30
2022/12/27 08:52:42;;;;;;;11.03;4.40;;;12.60;99.90;;;;;;4585998;19;20023;-29
2022/12/27 08:54:26;;;;;;;11.70;5.37;;;12.70;99.90;;;;;;4589750;19;20050;-35
2022/12/27 08:56:10;;;;;;;12.13;5.85;;;12.70;99.90;;;;;;4588612;19;20019;-30
2022/12/27 08:57:56;;;;;;;12.50;5.80;;;12.70;99.90;;;;;;4589027;19;20006;-30
2022/12/27 08:59:29;;;;;;;11.47;6.77;;;12.60;99.90;;;;;;4589575;19;20411;-30
2022/12/27 09:01:08;;;;;;;11.93;6.00;;;12.60;99.90;;;;;;4588109;19;20021;-29
2022/12/27 09:02:39;;;;;;;13.40;5.57;;;12.60;99.90;;;;;;4587509;19;20975;-29
2022/12/27 09:04:13;;;;;;;10.03;4.40;;;12.70;99.90;;;;;;4589497;19;20022;-33
2022/12/27 09:05:48;;;;;;;13.03;4.73;;;12.70;99.90;;;;;;4590334;19;20011;-31
2022/12/27 09:07:26;;;;;;;10.57;4.40;;;12.70;99.90;;;;;;4588216;19;20021;-32
2022/12/27 09:09:11;;;;;;;9.47;4.20;;;12.80;99.90;;;;;;4588378;19;20011;-29
2022/12/27 09:10:50;;;;;;;8.87;3.80;;;12.80;99.90;;;;;;4587852;19;20007;-30
2022/12/27 09:12:23;;;;;;;7.57;3.03;;;12.80;99.90;;;;;;4583952;19;20015;-32
2022/12/27 09:13:56;;;;;;;8.02;3.95;;;12.90;99.90;;;;;;4589208;19;20014;-34
2022/12/27 09:15:28;;;;;;;10.67;3.33;;;12.90;99.90;;;;;;4587835;19;20014;-29
2022/12/27 09:16:59;;;;;;;10.88;4.57;;;12.90;99.90;;;;;;4588124;19;20015;-29
2022/12/27 09:18:30;;;;;;;9.05;3.30;;;12.90;99.90;;;;;;4588546;19;20103;-29
2022/12/27 09:20:08;;;;;;;10.43;3.95;;;12.90;99.90;;;;;;4588235;19;20041;-29
2022/12/27 09:21:44;;;;;;;8.15;4.18;;;12.90;99.90;;;;;;4588546;19;20349;-33
2022/12/27 09:23:16;;;;;;;9.83;3.00;;;12.90;99.90;;;;;;4588370;19;20398;-33
2022/12/27 09:24:47;;;;;;;12.63;7.03;;;12.90;99.70;;;;;;4588508;19;20418;-30
2022/12/27 09:26:23;;;;;;;11.90;5.72;;;12.90;99.80;;;;;;4588368;19;20018;-32
2022/12/27 09:27:55;;;;;;;17.70;11.00;;;12.90;99.80;;;;;;4588175;19;20041;-30
2022/12/27 09:29:26;;;;;;;7.38;4.32;;;12.90;99.90;;;;;;4588309;19;20048;-36
2022/12/27 09:30:59;;;;;;;8.57;4.30;;;12.90;99.90;;;;;;4589075;19;20468;-30
2022/12/27 09:32:35;;;;;;;10.00;4.60;;;12.90;99.90;;;;;;4585153;19;20014;-29
2022/12/27 09:34:06;;;;;;;10.90;4.20;;;12.90;99.90;;;;;;4588351;19;20014;-32
2022/12/27 09:35:37;;;;;;;8.52;4.05;;;12.90;99.90;;;;;;4587746;19;20010;-33
2022/12/27 09:37:10;;;;;;;7.68;3.22;;;12.90;99.90;;;;;;4588205;19;20026;-30
2022/12/27 09:38:41;;;;;;;8.50;3.73;;;12.90;99.90;;;;;;4593194;19;20031;-30
2022/12/27 09:40:15;;;;;;;8.57;3.00;;;12.90;99.90;;;;;;4593538;19;20027;-30
2022/12/27 09:41:57;;;;;;;10.07;3.67;;;12.80;99.90;;;;;;4588351;19;20037;-30
2022/12/27 09:43:57;;;;;;;8.47;2.83;;;12.80;99.90;;;;;;4591962;19;20033;-31
2022/12/27 09:45:42;;;;;;;8.60;4.20;;;12.80;99.90;;;;;;4592183;19;20023;-30
2022/12/27 09:47:16;;;;;;;11.63;3.93;;;12.80;99.90;;;;;;4591852;19;20018;-30
2022/12/27 09:48:47;;;;;;;9.93;4.33;;;12.80;99.90;;;;;;4593450;19;20010;-31
2022/12/27 09:50:38;;;;;;;8.82;3.70;;;12.80;99.90;;;;;;4592752;19;20019;-31
2022/12/27 09:52:16;;;;;;;11.33;5.47;;;12.80;99.90;;;;;;4590494;19;20026;-30
2022/12/27 09:54:02;;;;;;;10.53;5.13;;;12.80;99.90;;;;;;4594475;19;20014;-31
2022/12/27 09:55:36;;;;;;;9.30;4.70;;;12.80;99.90;;;;;;4593658;19;20009;-29
2022/12/27 09:57:17;;;;;;;8.73;4.43;;;12.80;99.90;;;;;;4593786;19;20022;-29
2022/12/27 09:58:51;;;;;;;11.87;6.00;;;12.80;99.90;;;;;;4592066;19;20010;-31
2022/12/27 10:00:26;;;;;;;10.67;4.70;;;12.70;99.90;;;;;;4591327;19;20010;-29
2022/12/27 10:01:58;;;;;;;14.97;8.60;;;12.70;99.90;;;;;;4589666;19;21073;-30
2022/12/27 10:03:35;;;;;;;18.27;11.60;;;12.80;99.90;;;;;;4594252;19;20066;-30
2022/12/27 10:05:28;;;;;;;26.33;16.53;;;12.70;99.90;;;;;;4590909;19;20031;-34
2022/12/27 10:07:10;;;;;;;15.90;7.63;;;12.70;99.90;;;;;;4590949;19;20492;-32
2022/12/27 10:09:00;;;;;;;7.70;3.35;;;12.60;99.90;;;;;;4591213;19;20334;-30
2022/12/27 10:10:42;;;;;;;10.73;7.43;;;12.60;99.90;;;;;;4591391;19;20011;-34
2022/12/27 10:12:42;;;;;;;12.70;8.17;;;12.70;99.90;;;;;;4589031;19;20476;-36
2022/12/27 10:14:45;;;;;;;11.90;5.53;;;12.60;99.90;;;;;;4590859;19;20019;-31
2022/12/27 10:16:39;;;;;;;10.63;5.23;;;12.70;99.90;;;;;;4591414;19;20322;-33
2022/12/27 10:18:39;;;;;;;11.37;5.70;;;12.70;99.90;;;;;;4591432;19;20006;-31
2022/12/27 10:20:40;;;;;;;13.43;6.13;;;12.60;99.90;;;;;;4590907;19;20015;-30
2022/12/27 10:22:32;;;;;;;15.27;7.17;;;12.50;99.90;;;;;;4589670;19;20086;-32
2022/12/27 10:24:21;;;;;;;14.97;7.37;;;12.50;99.90;;;;;;4593489;19;20043;-31
2022/12/27 10:26:04;;;;;;;8.23;4.30;;;12.40;99.90;;;;;;4590193;19;20521;-32
2022/12/27 10:27:48;;;;;;;12.83;4.37;;;12.40;99.90;;;;;;4589444;19;20389;-29
2022/12/27 10:29:31;;;;;;;9.70;3.50;;;12.40;99.90;;;;;;4589711;19;20440;-30
2022/12/27 10:31:19;;;;;;;10.90;5.60;;;12.50;99.90;;;;;;4592100;19;20441;-33
2022/12/27 10:32:54;;;;;;;27.17;16.40;;;12.50;99.90;;;;;;4589349;19;20096;-29
2022/12/27 10:34:37;;;;;;;12.23;6.17;;;12.50;99.90;;;;;;4591008;19;20007;-30
2022/12/27 10:36:50;;;;;;;12.47;5.50;;;12.60;99.90;;;;;;4589891;19;20086;-32
2022/12/27 10:38:31;;;;;;;11.90;6.57;;;12.50;99.90;;;;;;4589705;19;20011;-31
2022/12/27 10:40:23;;;;;;;12.10;5.72;;;12.50;99.90;;;;;;4589497;19;20014;-31
2022/12/27 10:42:27;;;;;;;11.00;5.87;;;12.50;99.90;;;;;;4587287;19;20051;-35
2022/12/27 10:44:16;;;;;;;16.33;7.63;;;12.50;99.90;;;;;;4592290;19;20014;-30
2022/12/27 10:46:01;;;;;;;12.67;6.37;;;12.50;99.90;;;;;;4590221;19;20619;-33
2022/12/27 10:47:41;;;;;;;11.93;5.30;;;12.50;99.90;;;;;;4590093;19;20730;-34
2022/12/27 10:49:47;;;;;;;11.00;5.40;;;12.50;99.90;;;;;;4587935;19;20128;-29
2022/12/27 10:51:22;;;;;;;11.90;6.27;;;12.50;99.90;;;;;;4590925;19;20021;-31
2022/12/27 10:53:27;;;;;;;12.27;6.17;;;12.60;99.90;;;;;;4587464;19;20453;-30
2022/12/27 10:55:05;;;;;;;23.27;12.60;;;12.60;99.90;;;;;;4588579;19;20501;-30
2022/12/27 10:56:47;;;;;;;17.90;9.10;;;12.60;99.90;;;;;;4589562;19;20014;-30
2022/12/27 10:58:46;;;;;;;18.80;12.77;;;12.60;99.90;;;;;;4588217;19;20414;-28
2022/12/27 11:00:33;;;;;;;21.40;14.33;;;12.60;99.90;;;;;;4588217;19;20038;-32
2022/12/27 11:02:20;;;;;;;13.50;6.90;;;12.60;99.90;;;;;;4585770;19;20029;-29
2022/12/27 11:04:18;;;;;;;13.80;6.43;;;12.70;99.90;;;;;;4589276;19;20014;-32
2022/12/27 11:06:05;;;;;;;12.53;5.77;;;12.60;99.90;;;;;;4587289;19;20057;-32
2022/12/27 11:07:44;;;;;;;13.00;5.23;;;12.60;99.90;;;;;;4586761;19;20018;-30
2022/12/27 11:11:13;;;;;;;9.57;5.20;;;12.60;99.90;;;;;;4585922;19;20473;-31
2022/12/27 11:12:57;;;;;;;11.27;5.53;;;12.60;99.90;;;;;;4583574;19;20018;-32
2022/12/27 11:14:28;;;;;;;11.50;4.80;;;12.60;99.90;;;;;;4588249;19;20511;-30
2022/12/27 11:15:59;;;;;;;12.38;4.85;;;12.60;99.90;;;;;;4588875;19;20365;-29
2022/12/27 11:17:30;;;;;;;10.23;4.93;;;12.60;99.90;;;;;;4588472;19;20513;-31
2022/12/27 11:19:01;;;;;;;10.15;5.50;;;12.60;99.90;;;;;;4587792;19;20018;-29
2022/12/27 11:20:34;;;;;;;10.07;6.05;;;12.60;99.90;;;;;;4588091;19;20017;-28
2022/12/27 11:22:06;;;;;;;11.67;5.17;;;12.50;99.90;;;;;;4585068;19;20051;-29
2022/12/27 11:23:40;;;;;;;;;;;12.50;99.90;;;;;;4590366;19;20017;-31
2022/12/27 11:25:12;;;;;;;12.53;6.00;;;12.50;99.90;;;;;;4589659;19;19949;-29
2022/12/27 11:26:51;;;;;;;12.53;5.33;;;12.50;99.90;;;;;;4589910;19;20457;-30
2022/12/27 11:28:42;;;;;;;14.20;5.50;;;12.50;99.90;;;;;;4589347;19;20568;-30
2022/12/27 11:30:24;;;;;;;10.27;4.73;;;12.60;99.90;;;;;;4588733;19;20011;-34
2022/12/27 11:31:56;;;;;;;9.30;4.40;;;12.60;99.90;;;;;;4589507;19;20018;-33
2022/12/27 11:33:47;;;;;;;9.13;4.10;;;12.60;99.90;;;;;;4589456;19;20530;-30
2022/12/27 11:35:19;;;;;;;12.30;4.83;;;12.60;99.90;;;;;;4590016;19;20019;-30
2022/12/27 11:36:52;;;;;;;7.13;3.97;;;12.70;99.90;;;;;;4589726;19;20586;-29
2022/12/27 11:38:28;;;;;;;10.40;4.40;;;12.70;99.90;;;;;;4588965;19;20491;-35
2022/12/27 11:40:21;;;;;;;12.07;4.47;;;12.60;99.90;;;;;;4588795;19;20094;-30
2022/12/27 11:41:52;;;;;;;10.33;4.83;;;12.50;99.90;;;;;;4589323;19;20018;-29
2022/12/27 11:43:42;;;;;;;11.15;6.15;;;12.60;99.90;;;;;;4589083;19;20437;-30
2022/12/27 11:45:20;;;;;;;13.67;6.33;;;12.60;99.90;;;;;;4589002;19;20467;-30
2022/12/27 11:47:09;;;;;;;10.97;4.80;;;12.60;99.90;;;;;;4589623;19;20010;-31
2022/12/27 11:48:41;;;;;;;7.90;4.03;;;12.70;99.90;;;;;;4589596;19;20505;-31
2022/12/27 11:50:27;;;;;;;10.57;5.07;;;12.70;99.90;;;;;;4587830;19;20053;-34
2022/12/27 11:52:32;;;;;;;11.73;5.83;;;12.70;99.90;;;;;;4589332;19;20022;-30
2022/12/27 11:54:24;;;;;;;9.83;5.10;;;12.70;99.90;;;;;;4587360;19;20018;-29
2022/12/27 11:56:34;;;;;;;11.02;5.60;;;12.70;99.90;;;;;;4587583;19;20077;-31
2022/12/27 11:58:15;;;;;;;13.57;6.47;;;12.70;99.90;;;;;;4587802;19;20018;-34
2022/12/27 12:00:09;;;;;;;8.07;4.37;;;12.60;99.90;;;;;;4588021;19;20022;-30
2022/12/27 12:01:53;;;;;;;8.10;4.67;;;12.60;99.90;;;;;;4587028;19;20048;-30
2022/12/27 12:03:42;;;;;;;10.10;5.90;;;12.50;99.90;;;;;;4588366;19;20038;-29
2022/12/27 12:05:40;;;;;;;12.23;5.57;;;12.60;99.90;;;;;;4588002;19;20018;-32
2022/12/27 12:07:55;;;;;;;12.37;5.70;;;12.70;99.90;;;;;;4588764;19;20032;-30
2022/12/27 12:09:57;;;;;;;19.63;10.97;;;12.60;99.90;;;;;;4586464;19;20069;-31
2022/12/27 12:13:26;;;;;;;25.30;14.60;;;12.70;99.90;;;;;;4588504;19;20480;-29
2022/12/27 12:15:40;;;;;;;28.50;15.33;;;12.60;99.90;;;;;;4589713;19;20010;-34
2022/12/27 12:17:18;;;;;;;;;;;12.60;99.90;;;;;;4587792;19;20128;-31
2022/12/27 12:18:59;;;;;;;20.93;11.43;;;12.60;99.90;;;;;;4586796;19;20324;-33
2022/12/27 12:20:40;;;;;;;24.77;14.93;;;12.60;99.90;;;;;;4586263;19;20940;-30
2022/12/27 12:22:36;;;;;;;23.83;10.75;;;12.60;99.90;;;;;;4586415;19;20476;-32
2022/12/27 12:24:34;;;;;;;26.57;13.57;;;12.60;99.90;;;;;;4586598;19;20376;-31
2022/12/27 12:26:20;;;;;;;14.87;8.20;;;12.60;99.90;;;;;;4587541;19;20097;-32
2022/12/27 12:28:22;;;;;;;21.00;11.67;;;12.60;99.90;;;;;;4586204;19;20018;-29
2022/12/27 12:30:15;;;;;;;23.60;12.60;;;12.60;99.90;;;;;;4586599;19;20049;-32
2022/12/27 12:32:03;;;;;;;23.63;13.60;;;12.70;99.90;;;;;;4588721;19;20002;-29
2022/12/27 12:33:43;;;;;;;20.03;10.87;;;12.60;99.90;;;;;;4588996;19;20007;-31
2022/12/27 12:35:28;;;;;;;21.57;12.27;;;12.70;99.90;;;;;;4588793;19;20011;-29
2022/12/27 12:37:15;;;;;;;15.00;7.80;;;12.70;99.90;;;;;;4588226;19;20014;-30
2022/12/27 12:39:00;;;;;;;10.43;5.30;;;12.70;99.90;;;;;;4587683;19;20015;-34
2022/12/27 12:41:10;;;;;;;9.13;5.33;;;12.60;99.90;;;;;;4587480;19;20021;-30
2022/12/27 12:43:05;;;;;;;10.77;5.20;;;12.60;99.90;;;;;;4588509;19;20058;-33
2022/12/27 12:45:15;;;;;;;10.23;5.63;;;12.60;99.90;;;;;;4586425;19;20015;-33
2022/12/27 12:47:18;;;;;;;8.90;4.97;;;12.60;99.90;;;;;;4586649;19;20041;-31
2022/12/27 12:49:14;;;;;;;8.93;4.90;;;12.60;99.90;;;;;;4587105;19;20018;-34
2022/12/27 12:50:59;;;;;;;9.20;5.27;;;12.70;99.90;;;;;;4587083;19;20033;-32
2022/12/27 12:52:44;;;;;;;9.07;4.37;;;12.70;99.90;;;;;;4587766;19;20046;-35
2022/12/27 12:54:41;;;;;;;12.30;6.67;;;12.70;99.90;;;;;;4588192;19;20015;-31
2022/12/27 12:56:56;;;;;;;9.57;5.23;;;12.70;99.90;;;;;;4588285;19;20380;-30
2022/12/27 12:58:31;;;;;;;9.50;5.13;;;12.60;99.90;;;;;;4586131;19;20027;-31
2022/12/27 13:00:24;;;;;;;8.70;4.87;;;12.70;99.90;;;;;;4585591;19;20030;-29
2022/12/27 13:02:04;;;;;;;11.23;5.68;;;12.70;99.90;;;;;;4584936;19;20033;-30
2022/12/27 13:03:49;;;;;;;12.53;5.20;;;12.70;99.90;;;;;;4586119;19;20010;-32
2022/12/27 13:05:39;;;;;;;13.87;6.63;;;12.70;99.90;;;;;;4585927;19;20034;-32
2022/12/27 13:07:39;;;;;;;15.83;7.60;;;12.70;99.90;;;;;;4585673;19;20362;-31
2022/12/27 13:09:30;;;;;;;12.63;6.40;;;12.70;99.90;;;;;;4586486;19;20070;-31
2022/12/27 13:11:23;;;;;;;11.75;6.00;;;12.60;99.90;;;;;;4586526;19;20429;-30
2022/12/27 13:18:48;;;;;;;11.40;7.20;;;9.70;99.90;;;;;;4591670;19;20421;-28
2022/12/27 13:20:28;;;;;;;10.53;6.73;;;9.60;99.90;;;;;;4591478;19;20445;-31
2022/12/27 13:22:36;;;;;;;9.90;5.97;;;9.50;99.90;;;;;;4591798;19;20455;-29
2022/12/27 13:24:28;;;;;;;10.90;6.73;;;9.50;99.90;;;;;;4591475;19;20441;-29
2022/12/27 13:26:19;;;;;;;9.43;5.67;;;9.40;99.90;;;;;;4591370;19;20459;-31
2022/12/27 13:28:07;;;;;;;10.60;6.07;;;9.40;99.90;;;;;;4590838;19;21331;-29
2022/12/27 13:29:54;;;;;;;10.30;6.73;;;9.40;99.90;;;;;;4590995;19;21049;-33
2022/12/27 13:31:44;;;;;;;11.13;7.27;;;9.30;99.90;;;;;;4591705;19;21041;-31
2022/12/27 13:33:28;;;;;;;9.88;6.25;;;9.40;99.90;;;;;;4591219;19;20437;-28
2022/12/27 13:35:07;;;;;;;10.80;6.30;;;9.30;99.90;;;;;;4589518;19;20032;-30
2022/12/27 13:36:50;;;;;;;10.43;6.10;;;9.30;99.90;;;;;;4591477;19;20444;-28
2022/12/27 13:38:32;;;;;;;9.27;5.20;;;9.40;99.90;;;;;;4591249;19;20485;-29
2022/12/27 13:40:34;;;;;;;9.35;5.35;;;9.40;99.90;;;;;;4592093;19;20428;-32
2022/12/27 13:42:33;;;;;;;9.02;5.22;;;9.40;99.90;;;;;;4592065;19;20010;-30
2022/12/27 13:44:25;;;;;;;9.30;5.53;;;9.30;99.90;;;;;;4592075;19;20027;-30
2022/12/27 13:46:33;;;;;;;11.97;6.63;;;9.30;99.90;;;;;;4591444;19;20424;-33
2022/12/27 13:48:26;;;;;;;10.57;5.23;;;9.30;99.90;;;;;;4591435;19;20437;-32
2022/12/27 13:50:27;;;;;;;7.78;4.60;;;9.30;99.90;;;;;;4590119;19;20488;-28
2022/12/27 13:52:07;;;;;;;11.50;5.70;;;9.30;99.90;;;;;;4591287;19;20500;-30
2022/12/27 13:54:02;;;;;;;9.87;4.20;;;9.30;99.90;;;;;;4591139;19;20010;-29
2022/12/27 13:56:04;;;;;;;8.87;4.63;;;9.30;99.90;;;;;;4591158;19;20436;-31
2022/12/27 13:57:37;;;;;;;11.67;5.80;;;9.30;99.90;;;;;;4590961;19;20441;-33
2022/12/27 13:59:34;;;;;;;8.80;4.20;;;9.20;99.90;;;;;;4590992;19;20784;-29
2022/12/27 14:01:30;;;;;;;7.77;4.93;;;9.20;99.90;;;;;;4591038;19;21009;-29
2022/12/27 14:03:35;;;;;;;8.80;5.30;;;9.20;99.90;;;;;;4591408;19;20448;-30
2022/12/27 14:05:28;;;;;;;11.00;5.60;;;9.20;99.90;;;;;;4591414;19;21005;-28
2022/12/27 14:07:30;;;;;;;9.13;5.53;;;9.20;99.90;;;;;;4591221;19;20417;-30